Los Lunas ASC

Feb. 28, 2020, 12:05 p.m.

  • imperial
Air Temperature RH Dewpoint Wind Chill Heat Index Wind Speed Wind Direction Precipitation Solar Radiation Soil Temperature
Date Time Max Mean Mean Total Total
US/Mountain F % F F F MPH MPH MPH deg. deg. in. MJ/m^2 F
2020-02-27 12:05 53.01 20.11 13.09 53.01 53.01 3.31 4.38 2.71 146.1 109.9 0.0 0.217 40.48
2020-02-27 12:10 53.92 19.43 13.07 53.92 53.92 2.77 3.13 2.01 126.0 133.2 0.0 0.218 40.82
2020-02-27 12:15 52.63 19.4 11.96 52.63 52.63 3.13 4.56 2.93 184.2 71.1 0.0 0.218 41.14
2020-02-27 12:20 53.42 18.82 11.93 53.42 53.42 2.59 4.21 1.95 20.4 71.9 0.0 0.218 41.49
2020-02-27 12:25 52.81 19.29 11.98 52.81 52.81 3.85 7.25 3.94 4.2 52.6 0.0 0.218 41.81
2020-02-27 12:30 53.6 18.85 12.11 53.6 53.6 3.85 3.85 2.13 235.2 197.6 0.0 0.218 42.15
2020-02-27 12:35 54.75 18.27 12.36 54.75 54.75 1.7 3.67 2.24 146.7 186.7 0.0 0.218 42.46
2020-02-27 12:40 55.18 19.22 13.87 55.18 55.18 1.88 3.85 2.82 36.5 323.1 0.0 0.218 42.82
2020-02-27 12:45 55.24 17.52 11.81 55.24 55.24 4.92 10.09 4.9 7.2 18.6 0.0 0.218 43.12
2020-02-27 12:50 55.72 17.25 11.86 55.72 55.72 4.21 7.96 4.34 276.1 325.5 0.0 0.217 43.45
2020-02-27 12:55 56.34 16.64 11.54 56.34 56.34 3.49 6.0 3.58 2.1 0.5 0.0 0.217 43.75
2020-02-27 13:00 55.67 17.8 12.52 55.67 55.67 4.92 10.45 6.98 53.9 27.9 0.0 0.216 44.06
2020-02-27 13:05 55.31 17.73 12.14 55.31 55.31 6.53 11.16 7.74 8.7 28.0 0.0 0.215 44.37
2020-02-27 13:10 56.23 16.44 11.18 56.23 56.23 4.03 7.78 5.12 239.8 355.1 0.0 0.214 44.65
2020-02-27 13:15 57.38 16.84 12.67 57.38 57.38 4.03 9.22 4.07 33.2 296.1 0.0 0.213 44.96
2020-02-27 13:20 57.43 15.72 11.15 57.43 57.43 4.74 9.04 4.5 307.6 344.7 0.0 0.212 45.25
2020-02-27 13:25 57.81 15.52 11.17 57.81 57.81 8.68 10.63 4.76 25.3 337.1 0.0 0.21 45.52
2020-02-27 13:30 57.51 16.23 11.93 57.51 57.51 3.85 9.22 5.59 17.7 9.9 0.0 0.208 45.81
2020-02-27 13:35 58.35 15.86 12.1 58.35 58.35 8.12 10.09 6.51 25.2 7.3 0.0 0.207 46.04
2020-02-27 13:40 58.42 15.32 11.37 58.42 58.42 7.25 11.16 6.42 344.6 18.3 0.0 0.205 46.31
2020-02-27 13:45 57.81 16.51 12.57 57.81 57.81 5.64 8.86 6.0 29.1 12.9 0.0 0.203 46.56
2020-02-27 13:50 58.24 15.32 11.23 58.24 58.24 4.74 9.04 4.63 262.6 3.5 0.0 0.201 46.81
2020-02-27 13:55 58.35 15.32 11.32 58.35 58.35 7.61 8.48 5.12 9.4 349.4 0.0 0.199 47.07
2020-02-27 14:00 58.24 15.32 11.23 58.24 58.24 2.06 8.3 5.3 44.1 34.5 0.0 0.196 47.32
2020-02-27 14:05 58.3 15.76 11.91 58.3 58.3 6.71 10.8 6.33 38.0 19.5 0.0 0.194 47.53
2020-02-27 14:10 58.35 14.91 10.71 58.35 58.35 4.03 10.27 6.2 27.1 26.1 0.0 0.191 47.75
2020-02-27 14:15 58.42 16.2 12.64 58.42 58.42 7.96 9.73 6.78 40.5 45.9 0.0 0.188 47.98
2020-02-27 14:20 57.43 15.59 10.97 57.43 57.43 3.85 8.86 5.77 45.8 46.2 0.0 0.185 48.2
2020-02-27 14:25 59.22 14.57 10.88 59.22 59.22 5.64 8.12 3.96 10.0 355.6 0.0 0.183 48.4
2020-02-27 14:30 59.83 13.45 9.58 59.83 59.83 7.43 9.4 5.26 273.2 322.0 0.0 0.181 48.61
2020-02-27 14:35 59.7 14.13 10.58 59.7 59.7 4.38 9.57 4.65 270.5 316.2 0.0 0.177 48.81
2020-02-27 14:40 59.52 13.62 9.62 59.52 59.52 5.82 10.27 5.53 284.7 343.8 0.0 0.121 49.01
2020-02-27 14:45 59.88 15.04 12.13 59.88 59.88 5.64 7.25 5.08 38.1 352.5 0.0 0.141 49.19
2020-02-27 14:50 59.99 13.68 10.09 59.99 59.99 5.28 7.43 4.76 31.1 3.4 0.0 0.128 49.37
2020-02-27 14:55 60.24 13.38 9.79 60.24 60.24 1.52 5.64 2.89 160.7 2.2 0.0 0.154 49.53
2020-02-27 15:00 59.94 14.64 11.57 59.94 59.94 5.82 6.89 3.8 26.5 50.3 0.0 0.151 49.71
2020-02-27 15:05 60.17 13.89 10.57 60.17 60.17 5.46 8.12 4.97 277.4 5.9 0.0 0.094 49.87
2020-02-27 15:10 60.3 13.45 9.95 60.3 60.3 6.35 6.35 4.79 336.5 9.5 0.0 0.145 50.04
2020-02-27 15:15 60.48 14.19 11.3 60.48 60.48 5.46 9.04 5.17 43.4 28.1 0.0 0.069 50.18
2020-02-27 15:20 60.89 12.83 9.37 60.89 60.89 6.35 7.78 5.23 12.9 19.5 0.0 0.047 50.34
2020-02-27 15:25 61.07 13.31 10.33 61.07 61.07 2.59 6.71 3.89 314.8 359.8 0.0 0.048 50.47
2020-02-27 15:30 62.06 12.05 8.89 62.06 62.06 3.85 5.82 3.04 17.0 307.3 0.0 0.095 50.61
2020-02-27 15:35 60.96 12.63 9.07 60.96 60.96 2.59 6.0 3.53 289.9 325.3 0.0 0.12 50.72
2020-02-27 15:40 61.02 12.87 9.54 61.02 61.02 3.49 5.46 3.22 53.8 10.9 0.0 0.078 50.83
2020-02-27 15:45 60.89 14.39 11.94 60.89 60.89 5.82 6.53 4.45 26.3 19.2 0.0 0.013 50.94
2020-02-27 15:50 59.97 13.14 9.17 59.97 59.97 4.38 7.78 5.66 58.6 35.1 0.0 0.107 51.04
2020-02-27 15:55 60.76 12.25 8.24 60.76 60.76 4.74 6.17 3.85 320.8 18.3 0.0 0.115 51.13
2020-02-27 16:00 61.0 12.56 8.98 61.0 61.0 3.31 7.96 4.05 12.6 9.5 0.0 0.111 51.24
2020-02-27 16:05 61.0 11.75 7.5 61.0 61.0 2.77 8.12 4.12 307.2 346.7 0.0 0.106 51.31
2020-02-27 16:10 61.12 11.27 6.68 61.12 61.12 3.67 7.61 3.76 15.5 322.2 0.0 0.101 51.39
2020-02-27 16:15 61.32 12.12 8.44 61.32 61.32 3.67 6.53 4.41 33.4 13.0 0.0 0.097 51.44
2020-02-27 16:20 61.32 11.68 7.62 61.32 61.32 5.1 5.82 4.18 11.8 3.7 0.0 0.092 51.48
2020-02-27 16:25 60.84 11.71 7.3 60.84 60.84 5.82 7.78 5.55 30.2 3.8 0.0 0.087 51.53
2020-02-27 16:30 60.22 11.61 6.63 60.22 60.22 4.21 7.96 5.46 8.1 23.1 0.0 0.082 51.53
2020-02-27 16:35 60.22 11.61 6.63 60.22 60.22 4.92 8.48 4.81 54.1 21.6 0.0 0.077 51.55
2020-02-27 16:40 60.04 11.71 6.68 60.04 60.04 7.25 7.43 5.55 13.4 18.6 0.0 0.073 51.55
2020-02-27 16:45 59.56 13.58 9.58 59.56 59.56 5.1 7.61 5.32 28.6 11.1 0.0 0.066 51.55
2020-02-27 16:50 59.02 13.31 8.7 59.02 59.02 4.21 8.68 5.55 8.5 19.6 0.0 0.024 51.55
2020-02-27 16:55 59.2 13.58 9.29 59.2 59.2 4.21 5.64 3.98 0.0 24.8 0.0 0.014 51.53
2020-02-27 17:00 58.89 13.34 8.65 58.89 58.89 4.21 7.07 5.06 10.1 29.7 0.0 0.014 51.48
2020-02-27 17:05 58.84 13.62 9.07 58.84 58.84 4.56 7.07 5.03 32.8 25.9 0.0 0.008 51.44
2020-02-27 17:10 58.66 13.07 8.01 58.66 58.66 6.53 8.12 5.82 6.0 22.0 0.0 0.006 51.4
2020-02-27 17:15 58.23 13.62 8.58 58.23 58.23 4.74 7.61 5.12 28.3 32.0 0.0 0.006 51.33
2020-02-27 17:20 57.43 15.45 10.76 57.43 57.43 3.49 4.92 3.98 34.4 30.4 0.0 0.006 51.31
2020-02-27 17:25 57.02 15.25 10.14 57.02 57.02 3.67 5.28 3.6 32.2 32.4 0.0 0.005 51.24
2020-02-27 17:30 56.43 16.34 11.21 56.43 56.43 4.03 4.21 3.4 343.7 33.8 0.0 0.005 51.13
2020-02-27 17:35 55.76 15.12 8.93 55.76 55.76 2.95 5.28 3.76 33.9 35.5 0.0 0.005 51.08
2020-02-27 17:40 55.76 14.57 8.11 55.76 55.76 3.85 4.92 3.47 23.9 28.0 0.0 0.004 50.99
2020-02-27 17:45 55.09 15.66 9.17 55.09 55.09 3.49 4.38 3.51 40.6 25.2 0.0 0.003 50.86
2020-02-27 17:50 54.5 15.56 8.55 54.5 54.5 3.13 4.38 3.44 9.9 27.5 0.0 0.002 50.79
2020-02-27 17:55 54.01 15.77 8.45 54.01 54.01 2.42 3.13 2.48 10.7 29.4 0.0 0.002 50.7
2020-02-27 18:00 53.04 16.69 8.92 53.04 53.04 1.16 2.59 1.77 344.6 353.8 0.0 0.001 50.58
2020-02-27 18:05 52.43 16.65 8.37 52.43 52.43 1.16 1.16 0.81 296.1 303.5 0.0 0.001 50.47
2020-02-27 18:10 51.4 17.13 8.16 51.4 51.4 1.34 1.88 1.32 293.8 287.3 0.0 0.0 50.36
2020-02-27 18:15 50.92 17.88 8.71 50.92 50.92 0.81 1.7 1.07 317.8 338.6 0.0 0.0 50.25
2020-02-27 18:20 50.0 22.64 13.26 50.0 50.0 0.0 1.16 0.38 334.5 349.5 0.0 0.0 50.13
2020-02-27 18:25 48.49 21.35 10.66 48.49 48.49 0.0 0.0 0.0 283.4 0.0 0.0 0.0 50.0
2020-02-27 18:30 47.7 19.69 8.19 47.7 47.7 1.16 2.06 0.78 22.4 340.4 0.0 0.0 49.89
2020-02-27 18:35 48.02 19.62 8.38 48.02 48.02 1.16 2.06 1.57 61.5 27.9 0.0 0.0 49.75
2020-02-27 18:40 47.53 23.4 11.92 47.53 47.53 1.7 2.06 1.5 64.9 45.9 0.0 0.0 49.64
2020-02-27 18:45 45.7 26.9 13.51 45.7 45.7 1.88 2.42 1.99 61.2 58.5 0.0 0.0 49.5
2020-02-27 18:50 44.6 23.91 9.91 44.6 44.6 2.24 2.77 2.37 44.0 51.5 0.0 0.0 49.39
2020-02-27 18:55 44.37 24.46 10.22 44.37 44.37 1.88 2.59 2.17 55.5 48.6 0.0 0.0 49.24
2020-02-27 19:00 44.74 21.12 7.27 44.74 44.74 2.06 2.77 2.26 39.0 40.5 0.0 0.0 49.14
2020-02-27 19:05 44.51 23.51 9.45 44.51 44.51 2.77 3.31 2.46 40.9 41.5 0.0 0.0 48.99
2020-02-27 19:10 44.26 22.86 8.61 44.26 44.26 2.59 2.59 2.19 63.8 43.6 0.0 0.0 48.87
2020-02-27 19:15 43.77 23.88 9.17 43.77 43.77 2.06 2.59 2.13 59.3 54.0 0.0 0.0 48.76
2020-02-27 19:20 43.18 24.57 9.3 43.18 43.18 2.59 2.95 2.28 42.8 54.2 0.0 0.0 48.61
2020-02-27 19:25 42.21 25.9 9.65 42.21 42.21 0.0 2.42 0.74 99.7 60.1 0.0 0.0 48.51
2020-02-27 19:30 41.72 26.99 10.15 41.72 41.72 0.0 1.34 0.31 111.4 124.1 0.0 0.0 48.38
2020-02-27 19:35 41.29 27.91 10.53 41.29 41.29 0.0 1.88 0.65 162.2 126.9 0.0 0.0 48.24
2020-02-27 19:40 40.6 28.25 10.21 40.6 40.6 0.98 1.7 0.83 156.3 138.6 0.0 0.0 48.09
2020-02-27 19:45 40.42 29.54 11.05 40.42 40.42 0.0 0.81 0.11 73.2 129.6 0.0 0.0 48.0
2020-02-27 19:50 39.88 28.28 9.6 39.88 39.88 1.34 1.52 0.29 99.4 135.0 0.0 0.0 47.86
2020-02-27 19:55 40.24 30.87 11.89 40.24 40.24 1.16 1.52 1.03 128.3 129.2 0.0 0.0 47.71
2020-02-27 20:00 39.52 29.95 10.57 39.52 39.52 0.98 0.98 0.38 61.9 118.7 0.0 0.0 47.62
2020-02-27 20:05 39.04 34.38 13.26 39.04 39.04 1.16 2.42 1.41 100.7 70.7 0.0 0.0 47.48
2020-02-27 20:10 38.37 32.61 11.48 38.37 38.37 1.52 2.06 1.25 78.1 73.3 0.0 0.0 47.34
2020-02-27 20:15 38.07 32.95 11.44 35.99 38.07 3.13 3.13 2.04 55.6 61.5 0.0 0.0 47.25
2020-02-27 20:20 38.19 34.79 12.78 38.19 38.19 1.88 2.95 2.37 50.4 53.6 0.0 0.0 47.1
2020-02-27 20:25 37.45 31.56 9.93 37.45 37.45 2.06 2.06 1.12 76.0 127.0 0.0 0.0 46.99
2020-02-27 20:30 37.58 33.12 11.13 37.58 37.58 1.7 2.59 1.74 147.9 129.1 0.0 0.0 46.89
2020-02-27 20:35 37.51 33.23 11.14 37.51 37.51 2.24 2.24 1.77 163.7 164.8 0.0 0.0 46.76
2020-02-27 20:40 37.45 33.33 11.16 37.45 37.45 0.0 2.06 1.19 188.3 160.0 0.0 0.0 46.62
2020-02-27 20:45 37.27 34.9 12.04 37.27 37.27 1.52 2.42 1.28 171.5 177.8 0.0 0.0 46.53
2020-02-27 20:50 37.47 33.54 11.32 37.47 37.47 2.24 3.31 2.21 192.1 188.0 0.0 0.0 46.42
2020-02-27 20:55 37.04 33.91 11.18 37.04 37.04 0.0 2.77 1.43 255.3 228.0 0.0 0.0 46.27
2020-02-27 21:00 37.24 32.93 10.7 37.24 37.24 0.98 2.77 1.28 193.5 189.5 0.0 0.0 46.17
2020-02-27 21:05 37.54 32.56 10.71 37.54 37.54 0.0 1.88 0.67 186.4 188.3 0.0 0.0 46.04
2020-02-27 21:10 37.17 40.15 15.13 37.17 37.17 0.0 0.0 0.0 46.6 0.0 0.0 0.0 45.93
2020-02-27 21:15 36.25 37.8 12.93 36.25 36.25 0.0 2.42 0.98 50.6 74.1 0.0 0.0 45.81
2020-02-27 21:20 36.75 36.06 12.31 36.75 36.75 2.24 2.77 2.08 81.3 62.0 0.0 0.0 45.68
2020-02-27 21:25 37.72 34.36 12.08 37.72 37.72 1.52 2.59 1.92 78.0 81.7 0.0 0.0 45.57
2020-02-27 21:30 37.11 36.4 12.85 37.11 37.11 0.0 1.88 1.39 55.1 73.4 0.0 0.0 45.46
2020-02-27 21:35 36.93 32.52 10.14 36.93 36.93 2.42 3.13 2.15 35.3 51.4 0.0 0.0 45.36
2020-02-27 21:40 37.36 32.69 10.64 37.36 37.36 1.52 2.42 1.77 34.8 29.8 0.0 0.0 45.21
2020-02-27 21:45 37.36 34.97 12.16 37.36 37.36 1.34 1.88 1.54 37.4 32.0 0.0 0.0 45.12
2020-02-27 21:50 37.24 35.14 12.16 37.24 37.24 0.0 1.7 0.94 23.4 32.8 0.0 0.0 45.01
2020-02-27 21:55 36.75 33.71 10.79 36.75 36.75 0.0 0.81 0.02 109.6 23.6 0.0 0.0 44.91
2020-02-27 22:00 36.63 33.3 10.41 36.63 36.63 0.98 0.98 0.07 253.4 298.5 0.0 0.0 44.82
2020-02-27 22:05 37.06 31.77 9.73 37.06 37.06 1.7 1.88 0.98 41.3 346.2 0.0 0.0 44.71
2020-02-27 22:10 36.45 38.79 13.69 36.45 36.45 0.0 1.88 0.76 57.9 44.2 0.0 0.0 44.6
2020-02-27 22:15 35.4 36.37 11.3 35.4 35.4 1.16 1.16 0.09 49.9 55.9 0.0 0.0 44.51
2020-02-27 22:20 35.15 37.19 11.58 35.15 35.15 2.06 2.77 1.79 38.7 29.1 0.0 0.0 44.4
2020-02-27 22:25 35.71 35.11 10.78 35.71 35.71 1.7 2.77 2.26 36.9 26.6 0.0 0.0 44.29
2020-02-27 22:30 35.83 33.75 10.0 35.83 35.83 2.42 2.77 2.06 25.0 21.1 0.0 0.0 44.19
2020-02-27 22:35 35.71 34.36 10.29 35.71 35.71 1.34 2.95 1.9 2.4 356.8 0.0 0.0 44.11
2020-02-27 22:40 34.84 35.45 10.23 34.84 34.84 1.34 1.7 1.34 32.5 2.0 0.0 0.0 44.01
2020-02-27 22:45 34.61 35.83 10.26 34.61 34.61 1.88 1.88 1.25 45.0 7.1 0.0 0.0 43.9
2020-02-27 22:50 32.7 42.91 12.6 32.7 32.7 2.06 2.59 2.3 35.7 44.2 0.0 0.0 43.83
2020-02-27 22:55 32.34 46.08 13.89 32.34 32.34 1.88 2.24 1.54 49.5 53.5 0.0 0.0 43.74
2020-02-27 23:00 32.04 43.8 12.46 32.04 32.04 0.0 1.88 1.05 287.1 28.0 0.0 0.0 43.63
2020-02-27 23:05 32.11 42.54 11.86 32.11 32.11 0.0 2.24 1.03 47.5 38.2 0.0 0.0 43.54
2020-02-27 23:10 31.93 45.61 13.28 31.93 31.93 0.0 0.0 0.0 235.9 0.0 0.0 0.0 43.45
2020-02-27 23:15 31.86 45.1 12.96 31.86 31.86 1.7 1.88 0.76 244.8 229.9 0.0 0.0 43.34
2020-02-27 23:20 30.94 47.28 13.19 30.94 30.94 0.0 2.24 1.14 198.7 225.4 0.0 0.0 43.25
2020-02-27 23:25 30.52 47.08 12.71 30.52 30.52 0.0 0.0 0.0 226.9 0.0 0.0 0.0 43.16
2020-02-27 23:30 30.22 49.74 13.68 30.22 30.22 0.0 0.0 0.0 226.9 0.0 0.0 0.0 43.07
2020-02-27 23:35 30.02 47.01 12.21 30.02 30.02 1.7 3.13 1.54 222.3 235.7 0.0 0.0 42.96
2020-02-27 23:40 29.66 50.32 13.42 29.66 29.66 0.0 2.42 0.83 236.9 253.1 0.0 0.0 42.87
2020-02-27 23:45 29.61 48.85 12.7 29.61 29.61 0.81 0.98 0.4 217.1 228.0 0.0 0.0 42.8
2020-02-27 23:50 29.48 49.36 12.82 29.48 29.48 1.16 1.52 1.28 239.1 237.2 0.0 0.0 42.71
2020-02-27 23:55 29.53 50.66 13.46 29.53 29.53 0.0 1.52 0.54 205.3 233.6 0.0 0.0 42.6
2020-02-28 00:00 29.35 50.01 13.0 29.35 29.35 0.0 0.0 0.0 146.3 0.0 0.0 0.0 42.51
2020-02-28 00:05 28.8 51.58 13.19 28.8 28.8 0.98 0.98 0.07 190.1 187.0 0.0 0.0 42.42
2020-02-28 00:10 28.56 53.25 13.69 28.56 28.56 0.0 1.7 0.27 249.3 192.9 0.0 0.0 42.33
2020-02-28 00:15 28.63 51.72 13.1 28.63 28.63 0.0 1.52 0.45 206.0 302.5 0.0 0.0 42.24
2020-02-28 00:20 28.45 51.89 13.0 28.45 28.45 0.0 0.0 0.0 200.1 0.0 0.0 0.0 42.15
2020-02-28 00:25 28.2 52.41 13.0 28.2 28.2 0.0 0.0 0.0 75.7 0.0 0.0 0.0 42.06
2020-02-28 00:30 28.27 49.58 11.81 28.27 28.27 2.95 3.49 1.54 312.6 295.5 0.0 0.0 41.97
2020-02-28 00:35 28.45 50.06 12.19 28.45 28.45 0.0 2.59 0.81 80.7 272.7 0.0 0.0 41.88
2020-02-28 00:40 28.27 56.19 14.65 28.27 28.27 0.0 0.0 0.0 56.4 0.0 0.0 0.0 41.79
2020-02-28 00:45 27.36 56.3 13.83 27.36 27.36 0.0 0.0 0.0 339.3 0.0 0.0 0.0 41.7
2020-02-28 00:50 27.72 54.9 13.6 27.72 27.72 2.06 2.06 0.11 242.3 240.4 0.0 0.0 41.63
2020-02-28 00:55 28.2 48.94 11.45 28.2 28.2 2.42 3.85 1.83 248.2 250.5 0.0 0.0 41.54
2020-02-28 01:00 29.5 47.16 11.8 29.5 29.5 0.0 4.38 1.86 261.9 249.0 0.0 0.0 41.47
2020-02-28 01:05 28.94 53.43 14.12 28.94 28.94 1.88 1.88 0.2 46.0 59.5 0.0 0.0 41.36
2020-02-28 01:10 28.4 54.29 13.98 28.4 28.4 2.95 2.95 0.47 44.5 49.4 0.0 0.0 41.29
2020-02-28 01:15 26.92 61.58 15.48 26.92 26.92 0.0 2.42 0.98 157.5 81.0 0.0 0.0 41.22
2020-02-28 01:20 26.19 59.26 13.9 26.19 26.19 0.0 1.16 0.18 224.6 102.4 0.0 0.0 41.14
2020-02-28 01:25 26.37 59.91 14.32 26.37 26.37 0.0 1.7 0.54 220.1 227.5 0.0 0.0 41.05
2020-02-28 01:30 26.67 57.9 13.83 26.67 26.67 0.0 0.0 0.0 243.3 0.0 0.0 0.0 40.98
2020-02-28 01:35 26.74 57.25 13.64 26.74 26.74 0.0 0.0 0.0 230.5 0.0 0.0 0.0 40.89
2020-02-28 01:40 27.28 54.39 12.98 27.28 27.28 1.88 2.24 1.23 203.1 229.0 0.0 0.0 40.82
2020-02-28 01:45 27.66 56.64 14.26 27.66 27.66 1.34 2.42 1.3 285.5 240.3 0.0 0.0 40.77
2020-02-28 01:50 27.23 56.88 13.95 27.23 27.23 0.0 1.16 0.25 259.8 30.0 0.0 0.0 40.68
2020-02-28 01:55 27.41 55.38 13.51 27.41 27.41 1.16 2.06 1.45 28.9 262.9 0.0 0.0 40.62
2020-02-28 02:00 27.41 58.54 14.78 27.41 27.41 0.0 1.88 0.85 269.0 220.3 0.0 0.0 40.53
2020-02-28 02:05 27.41 53.98 12.93 27.41 27.41 2.06 2.77 1.72 232.1 238.4 0.0 0.0 40.48
2020-02-28 02:10 27.05 58.89 14.57 27.05 27.05 1.88 2.06 0.94 228.1 165.1 0.0 0.0 40.41
2020-02-28 02:15 26.11 60.79 14.42 26.11 26.11 2.42 2.42 1.19 213.7 158.5 0.0 0.0 40.33
2020-02-28 02:20 25.09 63.66 14.5 25.09 25.09 0.0 3.49 0.98 90.4 78.4 0.0 0.0 40.26
2020-02-28 02:25 25.02 64.27 14.65 25.02 25.02 0.0 1.34 0.45 35.8 173.7 0.0 0.0 40.21
2020-02-28 02:30 24.58 64.37 14.27 24.58 24.58 0.0 1.52 0.2 203.8 22.5 0.0 0.0 40.14
2020-02-28 02:35 24.66 64.68 14.45 24.66 24.66 0.0 0.81 0.02 236.2 228.2 0.0 0.0 40.08
2020-02-28 02:40 25.14 64.51 14.85 25.14 25.14 1.34 1.7 0.27 277.1 257.4 0.0 0.0 40.01
2020-02-28 02:45 25.93 59.5 13.76 25.93 25.93 1.88 2.06 1.39 227.8 243.9 0.0 0.0 39.94
2020-02-28 02:50 26.06 60.79 14.36 26.06 26.06 0.0 2.06 0.69 205.6 235.9 0.0 0.0 39.87
2020-02-28 02:55 25.81 61.82 14.51 25.81 25.81 0.0 0.0 0.0 201.3 0.0 0.0 0.0 39.79
2020-02-28 03:00 25.63 64.75 15.4 25.63 25.63 1.52 2.42 1.61 168.5 185.0 0.0 0.0 39.72
2020-02-28 03:05 25.27 63.9 14.75 25.27 25.27 0.0 1.88 0.81 130.5 164.5 0.0 0.0 39.67
2020-02-28 03:10 25.09 66.04 15.34 20.73 25.09 3.49 3.49 1.1 194.8 182.2 0.0 0.0 39.61
2020-02-28 03:15 25.65 63.22 14.87 25.65 25.65 1.52 3.85 2.77 99.6 186.2 0.0 0.0 39.56
2020-02-28 03:20 25.83 61.11 14.26 25.83 25.83 1.7 2.77 1.95 191.9 217.6 0.0 0.0 39.49
2020-02-28 03:25 25.83 61.14 14.27 25.83 25.83 1.16 2.24 1.3 68.8 157.5 0.0 0.0 39.42
2020-02-28 03:30 25.09 64.82 14.91 25.09 25.09 0.0 1.52 0.58 125.7 78.0 0.0 0.0 39.36
2020-02-28 03:35 24.53 65.98 14.78 24.53 24.53 0.0 0.0 0.0 172.1 0.0 0.0 0.0 39.31
2020-02-28 03:40 24.84 66.9 15.39 24.84 24.84 0.0 1.88 1.01 268.5 201.0 0.0 0.0 39.25
2020-02-28 03:45 24.91 67.28 15.59 24.91 24.91 2.24 2.24 1.48 11.5 351.3 0.0 0.0 39.18
2020-02-28 03:50 24.78 66.26 15.12 24.78 24.78 2.06 2.59 1.79 344.8 5.5 0.0 0.0 39.13
2020-02-28 03:55 24.48 67.18 15.15 24.48 24.48 1.88 2.77 1.48 37.0 0.5 0.0 0.0 39.09
2020-02-28 04:00 24.17 67.31 14.9 24.17 24.17 0.0 1.88 0.45 83.3 41.1 0.0 0.0 39.02
2020-02-28 04:05 22.82 70.62 14.7 22.82 22.82 2.77 2.77 1.52 66.4 44.2 0.0 0.0 38.97
2020-02-28 04:10 23.25 69.57 14.77 23.25 23.25 0.81 2.59 1.3 36.4 28.0 0.0 0.0 38.91
2020-02-28 04:15 23.56 69.43 15.02 23.56 23.56 1.34 1.34 0.27 224.7 229.0 0.0 0.0 38.84
2020-02-28 04:20 24.06 68.82 15.3 24.06 24.06 0.0 1.52 0.38 120.3 358.8 0.0 0.0 38.8
2020-02-28 04:25 24.42 64.6 14.2 24.42 24.42 0.0 1.7 0.49 240.4 344.4 0.0 0.0 38.73
2020-02-28 04:30 24.67 63.57 14.07 24.67 24.67 2.24 2.24 0.6 293.7 259.2 0.0 0.0 38.7
2020-02-28 04:35 24.93 61.46 13.54 24.93 24.93 0.0 2.42 0.94 257.9 271.3 0.0 0.0 38.64
2020-02-28 04:40 24.42 63.61 13.85 24.42 24.42 1.88 2.42 0.96 31.5 30.7 0.0 0.0 38.57
2020-02-28 04:45 24.19 65.28 14.21 24.19 24.19 0.0 1.52 0.16 330.0 20.9 0.0 0.0 38.55
2020-02-28 04:50 24.85 62.79 13.96 24.85 24.85 0.0 0.81 0.02 318.2 276.6 0.0 0.0 38.5
2020-02-28 04:55 25.11 60.41 13.32 25.11 25.11 0.81 1.52 0.72 344.7 314.7 0.0 0.0 38.44
2020-02-28 05:00 24.98 61.02 13.43 24.98 24.98 1.7 2.24 1.77 1.3 350.6 0.0 0.0 38.39
2020-02-28 05:05 26.02 57.58 13.09 26.02 26.02 2.06 2.42 1.68 288.5 315.6 0.0 0.0 38.35
2020-02-28 05:10 26.33 55.77 12.66 26.33 26.33 0.81 2.42 1.36 327.8 296.2 0.0 0.0 38.3
2020-02-28 05:15 26.51 54.78 12.42 26.51 26.51 1.52 1.88 0.65 269.2 305.6 0.0 0.0 38.26
2020-02-28 05:20 26.38 57.81 13.52 26.38 26.38 1.52 2.42 1.25 162.7 253.9 0.0 0.0 38.23
2020-02-28 05:25 25.41 61.94 14.18 25.41 25.41 1.52 3.31 1.36 186.0 171.8 0.0 0.0 38.17
2020-02-28 05:30 23.88 64.5 13.65 23.88 23.88 2.06 2.77 2.15 197.2 198.4 0.0 0.0 38.12
2020-02-28 05:35 23.5 66.51 13.99 23.5 23.5 2.77 2.77 2.01 200.2 189.7 0.0 0.0 38.08
2020-02-28 05:40 23.27 67.05 13.95 23.27 23.27 0.81 3.13 2.08 83.5 165.2 0.0 0.0 38.03
2020-02-28 05:45 23.02 67.6 13.89 23.02 23.02 0.0 0.0 0.0 88.8 0.0 0.0 0.0 37.99
2020-02-28 05:50 22.95 69.13 14.33 22.95 22.95 0.0 2.06 0.56 140.0 236.4 0.0 0.0 37.94
2020-02-28 05:55 22.77 68.59 13.98 22.77 22.77 0.0 0.0 0.0 70.4 0.0 0.0 0.0 37.9
2020-02-28 06:00 22.89 70.77 14.82 22.89 22.89 0.0 0.81 0.09 34.3 36.0 0.0 0.0 37.87
2020-02-28 06:05 23.02 69.51 14.53 23.02 23.02 1.7 1.7 0.49 294.6 3.3 0.0 0.0 37.81
2020-02-28 06:10 23.32 66.1 13.67 23.32 23.32 0.0 1.7 0.56 305.2 288.7 0.0 0.0 37.78
2020-02-28 06:15 23.32 66.13 13.68 23.32 23.32 0.0 1.7 0.34 260.1 320.1 0.0 0.0 37.74
2020-02-28 06:20 23.2 65.55 13.36 23.2 23.2 0.0 1.52 0.49 293.5 297.8 0.0 0.0 37.69
2020-02-28 06:25 21.18 71.42 13.38 15.75 21.18 3.85 4.74 1.97 36.2 43.8 0.0 0.0 37.65
2020-02-28 06:30 21.92 69.44 13.45 21.92 21.92 0.81 3.85 1.21 23.1 18.6 0.0 0.0 37.62
2020-02-28 06:35 22.84 66.17 13.23 22.84 22.84 1.16 3.31 1.63 308.6 17.4 0.0 0.001 37.58
2020-02-28 06:40 22.95 65.35 13.05 22.95 22.95 0.0 1.34 0.2 76.3 349.3 0.0 0.001 37.54
2020-02-28 06:45 22.15 69.03 13.54 22.15 22.15 2.24 2.24 0.89 219.2 211.9 0.0 0.002 37.49
2020-02-28 06:50 21.72 71.35 13.88 21.72 21.72 0.81 2.59 1.95 222.0 214.6 0.0 0.002 37.45
2020-02-28 06:55 21.42 71.25 13.55 21.42 21.42 0.0 0.0 0.0 130.5 0.0 0.0 0.004 37.42
2020-02-28 07:00 21.61 72.85 14.25 21.61 21.61 0.0 0.81 0.02 203.9 199.4 0.0 0.005 37.36
2020-02-28 07:05 21.79 70.74 13.75 21.79 21.79 0.0 1.34 0.65 211.4 224.9 0.0 0.005 37.33
2020-02-28 07:10 22.28 69.3 13.75 22.28 22.28 0.0 0.0 0.0 163.3 0.0 0.0 0.006 37.31
2020-02-28 07:15 22.96 72.88 15.56 22.96 22.96 0.0 0.81 0.04 33.5 38.8 0.0 0.008 37.27
2020-02-28 07:20 23.38 74.49 16.47 23.38 23.38 0.0 0.0 0.0 32.4 0.0 0.0 0.007 37.24
2020-02-28 07:25 23.88 75.3 17.2 23.88 23.88 0.0 1.16 0.09 59.2 49.9 0.0 0.009 37.2
2020-02-28 07:30 24.8 68.59 15.93 24.8 24.8 0.0 0.0 0.0 238.7 0.0 0.0 0.015 37.17
2020-02-28 07:35 26.02 61.67 14.66 26.02 26.02 0.0 0.0 0.0 45.0 0.0 0.0 0.016 37.13
2020-02-28 07:40 27.43 54.88 13.32 27.43 27.43 0.81 1.88 0.96 40.7 50.7 0.0 0.013 37.09
2020-02-28 07:45 27.93 57.03 14.67 27.93 27.93 0.0 0.0 0.0 47.8 0.0 0.0 0.011 37.06
2020-02-28 07:50 28.85 58.56 16.14 28.85 28.85 1.16 2.95 1.79 44.3 56.2 0.0 0.029 37.02
2020-02-28 07:55 29.34 56.42 15.74 29.34 29.34 0.0 2.42 1.3 49.5 39.8 0.0 0.061 36.99
2020-02-28 08:00 29.7 53.76 14.97 29.7 29.7 0.0 0.98 0.16 46.2 357.2 0.0 0.067 36.95
2020-02-28 08:05 30.79 54.67 16.38 30.79 30.79 2.06 2.59 1.01 58.8 61.0 0.0 0.072 36.91
2020-02-28 08:10 31.66 55.18 17.4 31.66 31.66 1.88 2.77 1.39 346.0 37.0 0.0 0.075 36.9
2020-02-28 08:15 33.42 54.36 18.7 33.42 33.42 1.34 3.13 1.95 48.7 31.8 0.0 0.081 36.88
2020-02-28 08:20 35.2 46.14 16.55 32.1 35.2 3.67 4.74 2.95 51.2 43.9 0.0 0.086 36.86
2020-02-28 08:25 36.61 42.7 16.04 36.61 36.61 2.42 4.03 2.95 61.3 59.3 0.0 0.091 36.82
2020-02-28 08:30 37.02 43.14 16.66 37.02 37.02 1.88 4.92 2.91 57.6 53.3 0.0 0.097 36.81
2020-02-28 08:35 37.51 44.15 17.63 34.21 37.51 4.21 4.38 3.22 66.1 49.9 0.0 0.102 36.81
2020-02-28 08:40 38.35 44.01 18.33 34.72 38.35 4.74 5.28 3.62 54.4 47.8 0.0 0.101 36.75
2020-02-28 08:45 39.51 38.18 16.08 37.04 39.51 3.67 5.1 4.03 37.4 39.8 0.0 0.109 36.73
2020-02-28 08:50 41.34 35.69 16.17 38.08 41.34 4.92 5.28 3.44 35.0 25.0 0.0 0.115 36.72
2020-02-28 08:55 41.86 35.51 16.52 41.86 41.86 2.59 5.1 3.89 35.8 30.2 0.0 0.121 36.7
2020-02-28 09:00 42.53 35.81 17.3 42.53 42.53 2.42 4.56 3.29 52.1 34.3 0.0 0.126 36.66
2020-02-28 09:05 43.12 36.11 18.03 40.17 43.12 4.92 4.92 3.58 345.1 39.9 0.0 0.134 36.66
2020-02-28 09:10 43.92 32.64 16.39 41.65 43.92 4.21 5.46 3.89 4.3 27.2 0.0 0.142 36.64
2020-02-28 09:15 44.94 31.51 16.48 42.56 44.94 4.56 5.28 3.87 49.0 32.2 0.0 0.146 36.63
2020-02-28 09:20 46.35 30.18 16.71 46.35 46.35 2.59 4.38 2.86 33.2 13.2 0.0 0.147 36.63
2020-02-28 09:25 47.26 28.07 15.84 47.26 47.26 1.16 5.28 3.24 275.0 6.2 0.0 0.151 36.61
2020-02-28 09:30 47.79 27.28 15.63 47.79 47.79 1.88 5.46 3.36 2.1 18.1 0.0 0.15 36.61
2020-02-28 09:35 48.04 24.93 13.78 46.56 48.04 4.03 4.38 3.29 37.2 18.4 0.0 0.137 36.64
2020-02-28 09:40 48.09 25.81 14.62 46.49 48.09 4.21 5.1 3.65 32.5 27.7 0.0 0.177 36.68
2020-02-28 09:45 48.56 22.58 11.98 48.56 48.56 2.24 4.92 2.82 30.8 34.1 0.0 0.148 36.73
2020-02-28 09:50 49.46 21.28 11.4 49.46 49.46 0.81 3.31 1.97 240.0 331.6 0.0 0.126 36.81
2020-02-28 09:55 49.64 21.52 11.8 49.64 49.64 1.52 4.38 2.37 283.4 18.7 0.0 0.143 36.91
2020-02-28 10:00 49.46 23.73 13.87 47.95 49.46 4.38 4.38 2.01 46.5 29.4 0.0 0.124 37.04
2020-02-28 10:05 50.79 20.63 11.82 50.79 50.79 2.24 4.92 1.86 29.3 318.6 0.0 0.177 37.18
2020-02-28 10:10 50.41 21.55 12.49 50.41 50.41 2.77 5.46 3.22 39.6 33.1 0.0 0.138 37.35
2020-02-28 10:15 49.44 23.42 13.56 49.44 49.44 2.95 3.67 2.15 53.9 7.2 0.0 0.102 37.51
2020-02-28 10:20 49.19 22.23 12.16 49.19 49.19 1.34 4.92 3.04 337.6 40.7 0.0 0.114 37.69
2020-02-28 10:25 49.86 23.93 14.4 47.97 49.86 5.1 5.1 3.36 43.5 49.1 0.0 0.169 37.89
2020-02-28 10:30 51.15 22.26 13.84 51.15 51.15 0.81 5.1 2.1 144.6 27.0 0.0 0.187 38.08
2020-02-28 10:35 52.79 19.51 12.22 52.79 52.79 2.42 5.1 2.04 55.7 100.4 0.0 0.218 38.3
2020-02-28 10:40 51.08 20.08 11.45 51.08 51.08 2.95 3.85 2.35 75.5 73.2 0.0 0.138 38.5
2020-02-28 10:45 51.03 19.71 10.98 51.03 51.03 3.31 3.67 2.77 53.3 53.7 0.0 0.185 38.73
2020-02-28 10:50 51.31 21.0 12.66 51.31 51.31 2.59 3.85 2.59 86.4 53.6 0.0 0.212 38.98
2020-02-28 10:55 52.72 19.16 11.75 52.72 52.72 2.24 2.77 1.72 164.1 73.5 0.0 0.158 39.22
2020-02-28 11:00 52.83 18.86 11.48 52.83 52.83 2.95 2.95 1.61 64.0 91.1 0.0 0.146 39.45
2020-02-28 11:05 53.51 18.99 12.21 53.51 53.51 2.77 3.31 1.52 64.8 92.1 0.0 0.179 39.74
2020-02-28 11:10 52.9 18.52 11.13 52.9 52.9 2.42 4.92 2.13 250.8 221.6 0.0 0.166 39.99
2020-02-28 11:15 52.16 19.13 11.25 52.16 52.16 1.52 4.03 2.35 195.9 224.4 0.0 0.107 40.26
2020-02-28 11:20 52.88 19.23 11.97 52.88 52.88 2.06 4.74 2.35 42.2 31.6 0.0 0.149 40.51
2020-02-28 11:25 54.23 19.5 13.4 54.23 54.23 2.24 2.77 1.77 195.4 52.6 0.0 0.246 40.8
2020-02-28 11:30 54.28 17.77 11.35 54.28 54.28 6.89 6.89 4.25 247.8 197.7 0.0 0.216 41.04
2020-02-28 11:35 53.67 18.51 11.76 53.67 53.67 2.59 6.35 4.09 235.5 191.7 0.0 0.195 41.29
2020-02-28 11:40 54.77 17.63 11.57 54.77 54.77 1.88 5.64 2.19 0.7 84.4 0.0 0.162 41.56
2020-02-28 11:45 55.08 16.51 10.34 55.08 55.08 3.49 4.74 2.68 298.1 307.2 0.0 0.155 41.81
2020-02-28 11:50 54.46 17.02 10.52 54.46 54.46 0.98 4.03 2.06 56.8 84.2 0.0 0.158 42.06
2020-02-28 11:55 54.7 17.66 11.55 54.7 54.7 1.88 3.67 1.88 312.1 70.6 0.0 0.122 42.31
2020-02-28 12:00 55.0 17.8 11.97 55.0 55.0 0.81 3.49 1.72 188.1 86.4 0.0 0.137 42.6
2020-02-28 12:05 55.62 17.25 11.77 55.62 55.62 1.16 4.74 2.57 25.6 163.2 0.0 0.201 42.85

Data is courtesy of the NM Climate Center. DO NOT USE IN LEGAL PROCEEDINGS.